createdAt,value
2018-08-28T00:00:21.470Z,17.40
2018-08-28T00:02:52.155Z,17.40
2018-08-28T00:05:22.808Z,17.40
2018-08-28T00:07:53.493Z,17.40
2018-08-28T00:10:24.154Z,17.40
2018-08-28T00:12:55.055Z,17.40
2018-08-28T00:15:25.705Z,17.40
2018-08-28T00:17:56.411Z,17.40
2018-08-28T00:20:27.081Z,17.40
2018-08-28T00:22:57.775Z,17.40
2018-08-28T00:25:28.421Z,17.30
2018-08-28T00:27:59.095Z,17.30
2018-08-28T00:30:29.847Z,17.40
2018-08-28T00:33:00.718Z,17.30
2018-08-28T00:35:31.521Z,17.40
2018-08-28T00:38:02.222Z,17.40
2018-08-28T00:40:33.058Z,17.30
2018-08-28T00:43:04.083Z,17.30
2018-08-28T00:45:34.739Z,17.30
2018-08-28T00:48:05.419Z,17.30
2018-08-28T00:50:36.087Z,17.30
2018-08-28T00:53:06.769Z,17.30
2018-08-28T00:55:37.816Z,17.30
2018-08-28T00:58:08.480Z,17.20
2018-08-28T01:00:39.161Z,17.20
2018-08-28T01:03:09.803Z,17.20
2018-08-28T01:05:40.487Z,17.20
2018-08-28T01:08:11.148Z,17.20
2018-08-28T01:10:41.833Z,17.20
2018-08-28T01:13:12.520Z,17.20
2018-08-28T01:15:43.205Z,17.20
2018-08-28T01:18:13.906Z,17.20
2018-08-28T01:20:44.559Z,17.10
2018-08-28T01:23:15.252Z,17.10
2018-08-28T01:25:45.892Z,17.10
2018-08-28T01:28:16.587Z,17.20
2018-08-28T01:30:47.241Z,17.10
2018-08-28T01:33:17.907Z,17.20
2018-08-28T01:35:48.618Z,17.10
2018-08-28T01:38:19.312Z,17.10
2018-08-28T01:40:49.957Z,17.10
2018-08-28T01:43:24.616Z,17.10
2018-08-28T01:45:55.414Z,17.10
2018-08-28T01:48:26.296Z,17.10
2018-08-28T01:50:56.964Z,17.10
2018-08-28T01:53:27.666Z,17.10
2018-08-28T01:55:58.325Z,17.00
2018-08-28T01:58:28.983Z,17.00
2018-08-28T02:00:59.636Z,17.00
2018-08-28T02:03:30.315Z,17.00
2018-08-28T02:06:00.972Z,17.00
2018-08-28T02:08:31.639Z,16.90
2018-08-28T02:11:02.317Z,16.90
2018-08-28T02:13:33.147Z,16.90
2018-08-28T02:16:04.160Z,16.80
2018-08-28T02:18:34.862Z,16.80
2018-08-28T02:21:05.704Z,16.80
2018-08-28T02:23:36.391Z,16.70
2018-08-28T02:26:07.083Z,16.70
2018-08-28T02:28:37.762Z,16.60
2018-08-28T02:31:08.439Z,16.60
2018-08-28T02:33:39.518Z,16.50
2018-08-28T02:36:10.240Z,16.50
2018-08-28T02:38:40.924Z,16.40
2018-08-28T02:41:11.592Z,16.40
2018-08-28T02:43:42.324Z,16.40
2018-08-28T02:46:12.963Z,16.30
2018-08-28T02:48:43.648Z,16.30
2018-08-28T02:51:14.319Z,16.30
2018-08-28T02:53:44.971Z,16.30
2018-08-28T02:56:15.684Z,16.20
2018-08-28T02:58:46.511Z,16.20
2018-08-28T03:01:17.186Z,16.20
2018-08-28T03:03:47.845Z,16.20
2018-08-28T03:06:18.542Z,16.10
2018-08-28T03:08:49.319Z,16.10
2018-08-28T03:11:20.040Z,16.10
2018-08-28T03:13:50.715Z,16.10
2018-08-28T03:16:21.395Z,16.10
2018-08-28T03:18:52.041Z,16.10
2018-08-28T03:21:22.714Z,16.10
2018-08-28T03:23:53.364Z,16.10
2018-08-28T03:26:24.311Z,16.00
2018-08-28T03:28:54.960Z,16.00
2018-08-28T03:31:25.627Z,16.00
2018-08-28T03:33:56.275Z,16.00
2018-08-28T03:36:26.959Z,16.00
2018-08-28T03:38:57.643Z,16.00
2018-08-28T03:41:28.639Z,16.00
2018-08-28T03:43:59.322Z,15.90
2018-08-28T03:46:30.053Z,15.90
2018-08-28T03:49:00.911Z,15.90
2018-08-28T03:51:31.615Z,15.90
2018-08-28T03:54:02.314Z,15.80
2018-08-28T03:56:32.969Z,15.80
2018-08-28T03:59:04.211Z,15.80
2018-08-28T04:01:34.855Z,15.80
2018-08-28T04:04:06.103Z,15.70
2018-08-28T04:06:36.784Z,15.70
2018-08-28T04:09:08.059Z,15.60
2018-08-28T04:11:38.699Z,15.50
2018-08-28T04:14:09.411Z,15.50
2018-08-28T04:16:40.399Z,15.50
2018-08-28T04:19:11.428Z,15.50
2018-08-28T04:21:42.366Z,15.40
2018-08-28T04:24:13.464Z,15.40
2018-08-28T04:26:44.927Z,15.30
2018-08-28T04:29:15.611Z,15.30
2018-08-28T04:31:48.018Z,15.30
2018-08-28T04:34:18.703Z,15.20
2018-08-28T04:36:49.370Z,15.10
2018-08-28T04:39:20.403Z,15.10
2018-08-28T04:41:51.114Z,15.10
2018-08-28T04:44:21.950Z,15.00
2018-08-28T04:46:52.628Z,15.00
2018-08-28T04:49:23.276Z,15.00
2018-08-28T04:51:53.991Z,14.90
2018-08-28T04:54:24.696Z,14.90
2018-08-28T04:56:55.515Z,14.80
2018-08-28T04:59:26.159Z,14.80
2018-08-28T05:01:56.863Z,14.80
2018-08-28T05:04:27.504Z,14.80
2018-08-28T05:06:58.175Z,14.80
2018-08-28T05:09:28.980Z,14.70
2018-08-28T05:11:59.660Z,14.70
2018-08-28T05:14:30.324Z,14.70
2018-08-28T05:17:01.403Z,14.70
2018-08-28T05:19:32.050Z,14.70
2018-08-28T05:22:02.748Z,14.70
2018-08-28T05:24:33.423Z,14.70
2018-08-28T05:27:04.115Z,14.70
2018-08-28T05:29:34.834Z,14.70
2018-08-28T05:32:06.049Z,14.70
2018-08-28T05:34:37.043Z,14.70
2018-08-28T05:37:07.929Z,14.70
2018-08-28T05:39:38.607Z,14.70
2018-08-28T05:42:09.288Z,14.70
2018-08-28T05:44:39.960Z,14.70
2018-08-28T05:47:11.002Z,14.80
2018-08-28T05:49:41.801Z,14.80
2018-08-28T05:52:12.594Z,14.80
2018-08-28T05:54:43.239Z,14.80
2018-08-28T05:57:13.921Z,14.80
2018-08-28T05:59:44.611Z,14.80
2018-08-28T06:02:15.612Z,14.80
2018-08-28T06:04:46.260Z,14.80
2018-08-28T06:07:17.006Z,14.90
2018-08-28T06:09:47.659Z,15.00
2018-08-28T06:12:18.331Z,15.00
2018-08-28T06:14:49.039Z,15.00
2018-08-28T06:17:19.903Z,15.10
2018-08-28T06:19:50.633Z,15.10
2018-08-28T06:22:21.275Z,15.20
2018-08-28T06:24:51.987Z,15.20
2018-08-28T06:27:26.073Z,15.30
2018-08-28T06:29:56.720Z,15.30
2018-08-28T06:32:27.372Z,15.40
2018-08-28T06:34:58.083Z,15.40
2018-08-28T06:37:28.777Z,15.50
2018-08-28T06:39:59.615Z,15.50
2018-08-28T06:42:30.307Z,15.60
2018-08-28T06:45:00.999Z,15.60
2018-08-28T06:47:31.886Z,15.70
2018-08-28T06:50:02.915Z,15.70
2018-08-28T06:52:33.573Z,15.80
2018-08-28T06:55:04.617Z,15.90
2018-08-28T06:57:35.323Z,16.00
2018-08-28T07:00:06.564Z,16.10
2018-08-28T07:02:37.487Z,16.20
2018-08-28T07:05:08.757Z,16.50
2018-08-28T07:07:39.626Z,16.70
2018-08-28T07:10:10.677Z,16.80
2018-08-28T07:12:41.552Z,17.00
2018-08-28T07:15:12.264Z,17.10
2018-08-28T07:17:42.922Z,17.20
2018-08-28T07:20:13.599Z,17.30
2018-08-28T07:22:44.245Z,17.20
2018-08-28T07:25:14.935Z,17.30
2018-08-28T07:27:45.596Z,17.30
2018-08-28T07:30:16.280Z,17.30
2018-08-28T07:32:46.915Z,17.30
2018-08-28T07:35:17.976Z,17.30
2018-08-28T07:37:48.635Z,17.40
2018-08-28T07:40:19.368Z,17.50
2018-08-28T07:42:50.445Z,17.50
2018-08-28T07:45:21.304Z,17.50
2018-08-28T07:47:51.956Z,17.50
2018-08-28T07:50:22.694Z,17.60
2018-08-28T07:52:53.493Z,17.60
2018-08-28T07:55:24.188Z,17.60
2018-08-28T07:57:54.842Z,17.70
2018-08-28T08:00:25.535Z,17.80
2018-08-28T08:02:56.215Z,17.80
2018-08-28T08:05:26.897Z,17.80
2018-08-28T08:07:57.595Z,17.80
2018-08-28T08:10:28.307Z,17.90
2018-08-28T08:12:59.134Z,17.80
2018-08-28T08:15:29.932Z,17.90
2018-08-28T08:18:00.751Z,17.90
2018-08-28T08:20:31.396Z,17.90
2018-08-28T08:23:02.066Z,18.00
2018-08-28T08:25:32.707Z,18.00
2018-08-28T08:28:03.503Z,18.00
2018-08-28T08:30:34.235Z,18.00
2018-08-28T08:33:04.987Z,18.00
2018-08-28T08:35:35.679Z,18.10
2018-08-28T08:38:06.416Z,18.20
2018-08-28T08:40:37.063Z,18.20
2018-08-28T08:43:08.089Z,18.30
2018-08-28T08:45:38.925Z,18.40
2018-08-28T08:48:09.616Z,18.50
2018-08-28T08:50:40.292Z,18.50
2018-08-28T08:53:10.986Z,18.60
2018-08-28T08:55:41.663Z,18.60
2018-08-28T08:58:12.342Z,18.60
2018-08-28T09:00:43.046Z,18.60
2018-08-28T09:03:13.700Z,18.60
2018-08-28T09:05:44.375Z,18.50
2018-08-28T09:08:15.075Z,18.50
2018-08-28T09:10:45.776Z,18.50
2018-08-28T09:13:16.462Z,18.50
2018-08-28T09:15:47.331Z,18.50
2018-08-28T09:18:17.975Z,18.60
2018-08-28T09:20:48.659Z,18.70
2018-08-28T09:23:19.331Z,18.70
2018-08-28T09:25:49.971Z,18.70
2018-08-28T09:28:20.634Z,18.70
2018-08-28T09:30:51.304Z,18.80
2018-08-28T09:33:21.951Z,18.90
2018-08-28T09:35:52.627Z,18.90
2018-08-28T09:38:23.338Z,18.90
2018-08-28T09:40:54.184Z,19.00
2018-08-28T09:43:24.835Z,19.10
2018-08-28T09:45:55.531Z,19.10
2018-08-28T09:48:26.291Z,19.20
2018-08-28T09:50:57.140Z,19.30
2018-08-28T09:53:27.945Z,19.40
2018-08-28T09:55:58.623Z,19.40
2018-08-28T09:58:29.283Z,19.50
2018-08-28T10:01:05.423Z,19.60
2018-08-28T10:03:36.103Z,19.60
2018-08-28T10:06:06.979Z,19.60
2018-08-28T10:08:37.657Z,19.70
2018-08-28T10:11:08.288Z,19.70
2018-08-28T10:13:38.972Z,19.70
2018-08-28T10:16:09.675Z,19.80
2018-08-28T10:18:40.328Z,19.70
2018-08-28T10:21:11.003Z,19.80
2018-08-28T10:23:41.664Z,19.90
2018-08-28T10:26:12.386Z,20.00
2018-08-28T10:28:43.038Z,20.10
2018-08-28T10:31:13.723Z,20.20
2018-08-28T10:33:44.379Z,20.30
2018-08-28T10:36:15.076Z,20.40
2018-08-28T10:38:45.744Z,20.50
2018-08-28T10:41:16.415Z,20.50
2018-08-28T10:43:47.071Z,20.60
2018-08-28T10:46:17.781Z,20.60
2018-08-28T10:48:49.007Z,20.60
2018-08-28T10:51:19.795Z,20.60
2018-08-28T10:53:50.627Z,20.60
2018-08-28T10:56:21.290Z,20.60
2018-08-28T10:58:51.927Z,20.60
2018-08-28T11:01:22.616Z,20.70
2018-08-28T11:03:53.271Z,20.80
2018-08-28T11:06:24.180Z,20.90
2018-08-28T11:08:54.840Z,21.00
2018-08-28T11:11:25.532Z,21.10
2018-08-28T11:13:55.940Z,21.20
2018-08-28T11:16:26.632Z,21.30
2018-08-28T11:18:57.006Z,21.30
2018-08-28T11:21:27.668Z,21.40
2018-08-28T11:23:58.373Z,21.40
2018-08-28T11:26:29.025Z,21.50
2018-08-28T11:28:59.408Z,21.50
2018-08-28T11:31:29.880Z,21.50
2018-08-28T11:34:00.396Z,21.60
2018-08-28T11:36:30.783Z,21.70
2018-08-28T11:39:01.184Z,21.80
2018-08-28T11:41:31.560Z,21.80
2018-08-28T11:44:02.170Z,21.80
2018-08-28T11:46:32.571Z,21.90
2018-08-28T11:49:02.941Z,21.90
2018-08-28T11:51:33.327Z,22.00
2018-08-28T11:54:03.724Z,22.10
2018-08-28T11:56:34.111Z,22.20
2018-08-28T11:59:04.516Z,22.20
2018-08-28T12:01:34.919Z,22.30
2018-08-28T12:04:06.063Z,22.30
2018-08-28T12:06:36.458Z,22.40
2018-08-28T12:09:08.073Z,22.50
2018-08-28T12:11:38.731Z,22.60
2018-08-28T12:14:09.110Z,22.70
2018-08-28T12:16:39.537Z,22.80
2018-08-28T12:19:09.904Z,22.90
2018-08-28T12:21:40.293Z,23.00
2018-08-28T12:24:10.688Z,23.10
2018-08-28T12:26:41.097Z,23.20
2018-08-28T12:29:11.670Z,23.30
2018-08-28T12:31:42.060Z,23.30
2018-08-28T12:34:12.425Z,23.40
2018-08-28T12:36:42.831Z,23.40
2018-08-28T12:39:13.405Z,23.50
2018-08-28T12:41:43.781Z,23.50
2018-08-28T12:44:14.143Z,23.50
2018-08-28T12:46:44.531Z,23.40
2018-08-28T12:49:14.927Z,23.40
2018-08-28T12:51:45.314Z,23.30
2018-08-28T12:54:15.678Z,23.30
2018-08-28T12:56:46.063Z,23.30
2018-08-28T12:59:16.543Z,23.40
2018-08-28T13:01:47.031Z,23.40
2018-08-28T13:04:17.416Z,23.50
2018-08-28T13:06:47.782Z,23.60
2018-08-28T13:09:18.180Z,23.70
2018-08-28T13:11:48.778Z,23.70
2018-08-28T13:14:19.339Z,23.80
2018-08-28T13:16:49.908Z,23.80
2018-08-28T13:19:20.516Z,23.80
2018-08-28T13:21:50.910Z,23.80
2018-08-28T13:24:21.259Z,23.80
2018-08-28T13:26:51.897Z,23.80
2018-08-28T13:29:22.243Z,23.80
2018-08-28T13:31:52.638Z,23.90
2018-08-28T13:34:23.009Z,23.90
2018-08-28T13:36:53.389Z,23.90
2018-08-28T13:39:23.763Z,24.00
2018-08-28T13:41:54.155Z,24.00
2018-08-28T13:44:24.514Z,24.10
2018-08-28T13:46:54.972Z,24.20
2018-08-28T13:49:25.493Z,24.20
2018-08-28T13:51:56.158Z,24.30
2018-08-28T13:54:26.592Z,24.30
2018-08-28T13:56:57.129Z,24.30
2018-08-28T13:59:27.487Z,24.30
2018-08-28T14:01:57.879Z,24.30
2018-08-28T14:04:28.235Z,24.30
2018-08-28T14:06:58.624Z,24.30
2018-08-28T14:09:29.008Z,24.30
2018-08-28T14:11:59.563Z,24.30
2018-08-28T14:14:29.943Z,24.40
2018-08-28T14:17:00.360Z,24.40
2018-08-28T14:19:30.747Z,24.40
2018-08-28T14:22:01.327Z,24.40
2018-08-28T14:24:31.896Z,24.40
2018-08-28T14:27:02.519Z,24.40
2018-08-28T14:29:32.870Z,24.40
2018-08-28T14:32:03.915Z,24.40
2018-08-28T14:34:34.332Z,24.50
2018-08-28T14:37:05.300Z,24.40
2018-08-28T14:39:35.677Z,24.50
2018-08-28T14:42:06.428Z,24.50
2018-08-28T14:44:36.788Z,24.50
2018-08-28T14:47:07.518Z,24.60
2018-08-28T14:49:37.907Z,24.50
2018-08-28T14:52:08.475Z,24.50
2018-08-28T14:54:38.831Z,24.50
2018-08-28T14:57:09.223Z,24.50
2018-08-28T14:59:39.770Z,24.50
2018-08-28T15:02:10.171Z,24.60
2018-08-28T15:04:40.758Z,24.60
2018-08-28T15:07:11.765Z,24.60
2018-08-28T15:09:42.187Z,24.60
2018-08-28T15:12:12.592Z,24.60
2018-08-28T15:14:42.983Z,24.60
2018-08-28T15:17:13.382Z,24.60
2018-08-28T15:19:44.267Z,24.60
2018-08-28T15:22:14.652Z,24.60
2018-08-28T15:24:45.226Z,24.60
2018-08-28T15:27:15.746Z,24.60
2018-08-28T15:29:46.176Z,24.50
2018-08-28T15:32:16.571Z,24.50
2018-08-28T15:34:46.971Z,24.50
2018-08-28T15:37:17.314Z,24.50
2018-08-28T15:39:47.703Z,24.40
2018-08-28T15:42:18.079Z,24.40
2018-08-28T15:44:48.494Z,24.40
2018-08-28T15:47:18.875Z,24.40
2018-08-28T15:49:49.266Z,24.40
2018-08-28T15:52:19.659Z,24.30
2018-08-28T15:54:50.029Z,24.30
2018-08-28T15:57:20.440Z,24.30
2018-08-28T15:59:50.819Z,24.30
2018-08-28T16:02:21.241Z,24.20
2018-08-28T16:04:51.916Z,24.30
2018-08-28T16:07:23.050Z,24.30
2018-08-28T16:09:53.452Z,24.30
2018-08-28T16:12:23.828Z,24.30
2018-08-28T16:14:54.221Z,24.30
2018-08-28T16:17:24.643Z,24.20
2018-08-28T16:19:55.024Z,24.20
2018-08-28T16:22:34.516Z,24.20
2018-08-28T16:25:05.197Z,24.20
2018-08-28T16:27:35.609Z,24.30
2018-08-28T16:30:06.131Z,24.30
2018-08-28T16:32:36.532Z,24.30
2018-08-28T16:35:07.260Z,24.30
2018-08-28T16:37:37.776Z,24.30
2018-08-28T16:40:08.510Z,24.30
2018-08-28T16:42:38.916Z,24.20
2018-08-28T16:45:09.819Z,24.10
2018-08-28T16:47:40.406Z,24.10
2018-08-28T16:50:10.854Z,24.10
2018-08-28T16:52:41.363Z,24.00
2018-08-28T16:55:11.731Z,24.00
2018-08-28T16:57:42.124Z,24.00
2018-08-28T17:00:12.487Z,23.90
2018-08-28T17:02:42.863Z,23.90
2018-08-28T17:05:13.267Z,23.90
2018-08-28T17:07:43.658Z,23.80
2018-08-28T17:10:14.051Z,23.80
2018-08-28T17:12:44.429Z,23.80
2018-08-28T17:15:14.838Z,23.70
2018-08-28T17:17:45.231Z,23.70
2018-08-28T17:20:15.629Z,23.70
2018-08-28T17:22:46.025Z,23.60
2018-08-28T17:25:16.639Z,23.50
2018-08-28T17:27:46.991Z,23.50
2018-08-28T17:30:17.384Z,23.40
2018-08-28T17:32:47.745Z,23.40
2018-08-28T17:35:18.143Z,23.30
2018-08-28T17:37:48.491Z,23.20
2018-08-28T17:40:18.883Z,23.10
2018-08-28T17:42:49.252Z,23.10
2018-08-28T17:45:19.632Z,23.00
2018-08-28T17:47:50.006Z,22.80
2018-08-28T17:50:20.612Z,22.80
2018-08-28T17:52:51.014Z,22.70
2018-08-28T17:55:21.416Z,22.60
2018-08-28T17:57:51.800Z,22.50
2018-08-28T18:00:22.191Z,22.50
2018-08-28T18:02:52.580Z,22.40
2018-08-28T18:08:31.566Z,22.30
2018-08-28T18:11:02.787Z,22.20
2018-08-28T18:13:33.314Z,22.20
2018-08-28T18:16:03.707Z,22.10
2018-08-28T18:18:35.119Z,22.00
2018-08-28T18:21:06.270Z,21.90
2018-08-28T18:23:36.807Z,21.90
2018-08-28T18:26:08.272Z,21.80
2018-08-28T18:28:38.851Z,21.70
2018-08-28T18:31:09.354Z,21.70
2018-08-28T18:33:39.731Z,21.60
2018-08-28T18:36:10.283Z,21.50
2018-08-28T18:38:40.983Z,21.40
2018-08-28T18:41:11.422Z,21.30
2018-08-28T18:43:41.910Z,21.20
2018-08-28T18:46:12.467Z,21.20
2018-08-28T18:48:42.819Z,21.10
2018-08-28T18:51:13.195Z,21.00
2018-08-28T18:53:43.539Z,21.00
2018-08-28T18:56:13.980Z,20.90
2018-08-28T18:58:44.461Z,20.80
2018-08-28T19:01:14.823Z,20.70
2018-08-28T19:03:45.954Z,20.60
2018-08-28T19:06:16.327Z,20.60
2018-08-28T19:08:46.734Z,20.50
2018-08-28T19:11:17.295Z,20.50
2018-08-28T19:13:47.687Z,20.40
2018-08-28T19:16:18.060Z,20.40
2018-08-28T19:18:48.413Z,20.30
2018-08-28T19:21:19.089Z,20.30
2018-08-28T19:23:49.431Z,20.20
2018-08-28T19:26:19.803Z,20.20
2018-08-28T19:28:50.304Z,20.10
2018-08-28T19:31:20.878Z,20.10
2018-08-28T19:33:51.227Z,20.10
2018-08-28T19:36:21.926Z,20.00
2018-08-28T19:38:52.431Z,20.00
2018-08-28T19:41:22.819Z,20.00
2018-08-28T19:43:53.172Z,20.00
2018-08-28T19:46:23.846Z,20.00
2018-08-28T19:48:54.198Z,20.00
2018-08-28T19:51:24.858Z,20.00
2018-08-28T19:53:55.530Z,19.90
2018-08-28T19:56:26.195Z,19.90
2018-08-28T19:58:56.858Z,19.80
2018-08-28T20:01:27.730Z,19.80
2018-08-28T20:03:58.117Z,19.80
2018-08-28T20:06:29.233Z,19.80
2018-08-28T20:08:59.935Z,19.70
2018-08-28T20:11:30.591Z,19.70
2018-08-28T20:14:01.219Z,19.70
2018-08-28T20:16:31.880Z,19.70
2018-08-28T20:19:02.559Z,19.70
2018-08-28T20:21:33.222Z,19.60
2018-08-28T20:24:04.195Z,19.60
2018-08-28T20:26:34.838Z,19.50
2018-08-28T20:29:05.754Z,19.50
2018-08-28T20:31:36.395Z,19.50
2018-08-28T20:34:07.342Z,19.40
2018-08-28T20:36:38.019Z,19.50
2018-08-28T20:39:08.649Z,19.40
2018-08-28T20:41:39.326Z,19.40
2018-08-28T20:44:10.430Z,19.40
2018-08-28T20:46:41.091Z,19.40
2018-08-28T20:49:11.728Z,19.30
2018-08-28T20:51:42.422Z,19.30
2018-08-28T20:54:13.052Z,19.30
2018-08-28T20:56:44.063Z,19.30
2018-08-28T20:59:14.688Z,19.30
2018-08-28T21:01:45.360Z,19.20
2018-08-28T21:04:16.138Z,19.20
2018-08-28T21:06:46.923Z,19.20
2018-08-28T21:09:17.706Z,19.20
2018-08-28T21:11:48.419Z,19.20
2018-08-28T21:14:19.205Z,19.20
2018-08-28T21:16:50.066Z,19.10
2018-08-28T21:19:20.705Z,19.10
2018-08-28T21:21:51.363Z,19.10
2018-08-28T21:24:22.017Z,19.00
2018-08-28T21:26:52.700Z,19.00
2018-08-28T21:29:23.446Z,18.90
2018-08-28T21:31:54.243Z,18.90
2018-08-28T21:34:24.866Z,18.90
2018-08-28T21:36:55.631Z,18.80
2018-08-28T21:39:26.254Z,18.80
2018-08-28T21:41:56.940Z,18.70
2018-08-28T21:44:27.714Z,18.60
2018-08-28T21:46:58.439Z,18.50
2018-08-28T21:49:29.095Z,18.50
2018-08-28T21:51:59.757Z,18.40
2018-08-28T21:54:30.739Z,18.30
2018-08-28T21:57:01.596Z,18.20
2018-08-28T21:59:33.221Z,18.20
2018-08-28T22:02:03.878Z,18.10
2018-08-28T22:04:34.513Z,18.00
2018-08-28T22:07:10.515Z,17.90
2018-08-28T22:09:41.291Z,17.80
2018-08-28T22:12:11.959Z,17.80
2018-08-28T22:14:42.682Z,17.80
2018-08-28T22:17:13.796Z,17.70
2018-08-28T22:19:44.440Z,17.70
2018-08-28T22:22:15.464Z,17.60
2018-08-28T22:24:46.116Z,17.60
2018-08-28T22:27:16.817Z,17.60
2018-08-28T22:29:47.548Z,17.60
2018-08-28T22:32:18.221Z,17.50
2018-08-28T22:34:48.913Z,17.50
2018-08-28T22:37:20.067Z,17.50
2018-08-28T22:39:50.786Z,17.40
2018-08-28T22:42:21.430Z,17.40
2018-08-28T22:44:52.161Z,17.40
2018-08-28T22:47:22.852Z,17.30
2018-08-28T22:49:53.524Z,17.30
2018-08-28T22:52:24.191Z,17.30
2018-08-28T22:54:54.918Z,17.20
2018-08-28T22:57:25.583Z,17.20
2018-08-28T22:59:57.326Z,17.10
2018-08-28T23:02:28.016Z,17.10
2018-08-28T23:04:58.701Z,17.10
2018-08-28T23:07:29.411Z,17.00
2018-08-28T23:10:00.099Z,17.00
2018-08-28T23:12:31.616Z,17.00
2018-08-28T23:15:02.353Z,16.90
2018-08-28T23:17:33.236Z,16.90
2018-08-28T23:20:03.911Z,16.90
2018-08-28T23:22:34.648Z,16.80
2018-08-28T23:25:05.439Z,16.80
2018-08-28T23:27:36.136Z,16.80
2018-08-28T23:30:06.913Z,16.70
2018-08-28T23:32:37.601Z,16.70
2018-08-28T23:35:08.288Z,16.60
2018-08-28T23:37:38.997Z,16.60
2018-08-28T23:40:09.904Z,16.50
2018-08-28T23:42:40.631Z,16.50
2018-08-28T23:45:11.386Z,16.40
2018-08-28T23:47:42.072Z,16.40
2018-08-28T23:50:13.200Z,16.30
2018-08-28T23:52:43.955Z,16.20
2018-08-28T23:55:14.636Z,16.20
2018-08-28T23:57:45.332Z,16.20
